Alfred, Maine
Current Conditions -  °F | °C
As of 8:55 AM on Thursday 30 Oct 2014 (Local Time) from KSFM Reporting Station
Broken Clouds Broken Clouds  
Wind Chill: 41°   Ceiling: 7500
Heat Index: 45°   Visibility: 10mi
Dew Point: 36°   Wind: 7mph
Humidity: 71%   Direction: 240°WSW
Pressure: 29.91"   Gusts: NA
Location:  43.48°N, 70.72°W
Report Text: KSFM 301255Z AUTO 24006KT 10SM BKN075 07/02 A2991 RMK AO1
Loading
Personal Weather Stations






























Interactive Weather Map New forecast layout! Learn more

10-Day Weather Forecast

Advertisements
Track Severe Weather on mobile